Time;durP1;ratioP1;P1;durP2;ratioP2;P2;SDS_P1;SDS_P2;PMS_P1;PMS_P2;Temp;Humidity;BMP_temperature;BMP_pressure;BME280_temperature;BME280_humidity;BME280_pressure;Samples;Min_cycle;Max_cycle;Signal;HPM_P1;HPM_P2
2020/03/28 00:01:11;;;;;;;6.58;5.13;;;;;;;19.68;32.96;100493.93;;;;-56
2020/03/28 00:04:10;;;;;;;6.08;5.17;;;;;;;19.67;32.97;100493.83;;;;-55
2020/03/28 00:07:11;;;;;;;6.37;5.33;;;;;;;19.66;32.94;100491.94;;;;-56
2020/03/28 00:10:10;;;;;;;6.25;5.18;;;;;;;19.64;33.01;100493.79;;;;-55
2020/03/28 00:13:10;;;;;;;5.65;4.99;;;;;;;19.63;32.98;100498.34;;;;-56
2020/03/28 00:17:25;;;;;;;6.58;5.28;;;;;;;19.61;32.99;100498.12;;;;-55
2020/03/28 00:21:10;;;;;;;6.60;5.09;;;;;;;19.59;33.04;100502.55;;;;-56
2020/03/28 00:24:10;;;;;;;5.83;5.07;;;;;;;19.58;33.00;100510.95;;;;-55
2020/03/28 00:27:10;;;;;;;6.59;5.23;;;;;;;19.57;33.05;100511.06;;;;-57
2020/03/28 00:30:11;;;;;;;6.66;5.33;;;;;;;19.54;33.04;100507.02;;;;-55
2020/03/28 00:33:10;;;;;;;7.67;5.30;;;;;;;19.53;33.06;100504.13;;;;-56
2020/03/28 00:36:10;;;;;;;7.14;5.14;;;;;;;19.52;33.07;100507.33;;;;-55
2020/03/28 00:39:11;;;;;;;6.55;4.78;;;;;;;19.51;33.04;100512.58;;;;-56
2020/03/28 00:42:10;;;;;;;5.93;5.31;;;;;;;19.49;33.06;100510.65;;;;-55
2020/03/28 00:45:10;;;;;;;6.09;5.21;;;;;;;19.48;33.05;100508.25;;;;-55
2020/03/28 00:48:10;;;;;;;6.09;5.29;;;;;;;19.47;33.07;100512.56;;;;-55
2020/03/28 00:51:10;;;;;;;6.02;5.13;;;;;;;19.46;33.05;100512.41;;;;-55
2020/03/28 00:54:10;;;;;;;6.12;4.97;;;;;;;19.45;33.04;100510.64;;;;-56
2020/03/28 00:57:10;;;;;;;6.26;5.19;;;;;;;19.43;33.11;100512.92;;;;-55
2020/03/28 01:00:10;;;;;;;6.87;5.26;;;;;;;19.42;33.08;100514.55;;;;-56
2020/03/28 01:03:10;;;;;;;6.81;5.23;;;;;;;19.40;33.09;100516.59;;;;-56
2020/03/28 01:06:10;;;;;;;6.93;4.84;;;;;;;19.40;33.12;100516.03;;;;-56
2020/03/28 01:09:10;;;;;;;6.82;5.20;;;;;;;19.39;33.10;100518.45;;;;-56
2020/03/28 01:12:10;;;;;;;5.93;5.18;;;;;;;19.37;33.09;100519.20;;;;-56
2020/03/28 01:15:10;;;;;;;7.94;5.49;;;;;;;19.36;33.07;100521.20;;;;-55
2020/03/28 01:18:10;;;;;;;6.17;5.17;;;;;;;19.34;33.14;100521.69;;;;-56
2020/03/28 01:21:10;;;;;;;6.28;5.35;;;;;;;19.33;33.14;100522.47;;;;-56
2020/03/28 01:24:11;;;;;;;7.37;5.42;;;;;;;19.32;33.13;100521.76;;;;-56
2020/03/28 01:27:10;;;;;;;5.60;4.99;;;;;;;19.31;33.15;100521.98;;;;-56
2020/03/28 01:30:12;;;;;;;6.25;5.24;;;;;;;19.30;33.17;100522.94;;;;-56
2020/03/28 01:34:10;;;;;;;7.03;5.28;;;;;;;19.29;33.18;100517.86;;;;-54
2020/03/28 01:37:10;;;;;;;6.04;5.15;;;;;;;19.27;33.16;100521.28;;;;-55
2020/03/28 01:40:10;;;;;;;7.41;5.52;;;;;;;19.27;33.18;100529.16;;;;-55
2020/03/28 01:43:10;;;;;;;6.11;5.23;;;;;;;19.26;33.18;100527.44;;;;-55
2020/03/28 01:46:10;;;;;;;6.69;5.33;;;;;;;19.24;33.20;100524.61;;;;-55
2020/03/28 01:49:11;;;;;;;7.12;5.26;;;;;;;19.24;33.19;100527.34;;;;-56
2020/03/28 01:52:10;;;;;;;5.75;5.09;;;;;;;19.22;33.21;100525.69;;;;-56
2020/03/28 01:55:10;;;;;;;6.29;4.92;;;;;;;19.21;33.17;100526.48;;;;-55
2020/03/28 01:58:10;;;;;;;7.02;5.11;;;;;;;19.20;33.20;100524.25;;;;-55
2020/03/28 02:01:10;;;;;;;6.15;5.31;;;;;;;19.19;33.24;100521.53;;;;-55
2020/03/28 02:04:10;;;;;;;6.07;5.19;;;;;;;19.18;33.18;100523.66;;;;-56
2020/03/28 02:07:10;;;;;;;6.31;5.13;;;;;;;19.17;33.21;100526.05;;;;-56
2020/03/28 02:10:10;;;;;;;6.35;5.39;;;;;;;19.17;33.24;100529.53;;;;-56
2020/03/28 02:13:10;;;;;;;6.88;5.36;;;;;;;19.16;33.22;100528.75;;;;-56
2020/03/28 02:16:10;;;;;;;5.97;5.29;;;;;;;19.15;33.25;100534.23;;;;-56
2020/03/28 02:19:10;;;;;;;5.70;5.09;;;;;;;19.14;33.25;100529.12;;;;-55
2020/03/28 02:22:11;;;;;;;6.31;4.98;;;;;;;19.13;33.23;100529.48;;;;-55
2020/03/28 02:25:10;;;;;;;5.93;5.33;;;;;;;19.12;33.23;100530.70;;;;-56
2020/03/28 02:28:10;;;;;;;6.25;5.09;;;;;;;19.11;33.25;100535.23;;;;-57
2020/03/28 02:31:10;;;;;;;6.65;5.18;;;;;;;19.09;33.25;100535.74;;;;-56
2020/03/28 02:34:10;;;;;;;6.03;5.24;;;;;;;19.08;33.27;100536.38;;;;-55
2020/03/28 02:37:13;;;;;;;6.35;5.23;;;;;;;19.07;33.26;100534.32;;;;-56
2020/03/28 02:41:11;;;;;;;6.09;5.45;;;;;;;19.06;33.28;100536.38;;;;-56
2020/03/28 02:44:10;;;;;;;6.17;5.38;;;;;;;19.04;33.26;100534.02;;;;-55
2020/03/28 02:47:10;;;;;;;7.16;5.29;;;;;;;19.05;33.26;100534.89;;;;-56
2020/03/28 02:50:11;;;;;;;6.66;5.27;;;;;;;19.03;33.27;100538.08;;;;-56
2020/03/28 02:53:10;;;;;;;6.37;5.31;;;;;;;19.03;33.30;100536.97;;;;-56
2020/03/28 02:56:10;;;;;;;6.44;5.38;;;;;;;19.02;33.29;100534.58;;;;-56
2020/03/28 02:59:10;;;;;;;6.33;5.43;;;;;;;19.01;33.32;100535.04;;;;-57
2020/03/28 03:02:10;;;;;;;5.99;5.11;;;;;;;19.00;33.33;100533.41;;;;-56
2020/03/28 03:05:10;;;;;;;6.40;5.26;;;;;;;18.99;33.32;100537.89;;;;-56
2020/03/28 03:08:10;;;;;;;6.12;5.11;;;;;;;18.99;33.32;100543.30;;;;-56
2020/03/28 03:11:10;;;;;;;6.21;5.61;;;;;;;18.98;33.34;100542.19;;;;-56
2020/03/28 03:14:11;;;;;;;6.01;5.15;;;;;;;18.97;33.30;100544.72;;;;-56
2020/03/28 03:17:10;;;;;;;5.91;5.19;;;;;;;18.96;33.33;100545.34;;;;-55
2020/03/28 03:20:10;;;;;;;6.19;5.35;;;;;;;18.95;33.36;100544.95;;;;-56
2020/03/28 03:23:10;;;;;;;6.25;5.10;;;;;;;18.95;33.32;100544.55;;;;-56
2020/03/28 03:26:10;;;;;;;6.48;5.35;;;;;;;18.93;33.33;100543.30;;;;-56
2020/03/28 03:29:10;;;;;;;5.93;5.11;;;;;;;18.93;33.36;100551.83;;;;-56
2020/03/28 03:32:10;;;;;;;7.29;5.45;;;;;;;18.92;33.37;100549.33;;;;-55
2020/03/28 03:35:10;;;;;;;6.42;5.27;;;;;;;18.92;33.34;100553.02;;;;-56
2020/03/28 03:38:10;;;;;;;6.88;5.42;;;;;;;18.90;33.39;100557.71;;;;-56
2020/03/28 03:41:10;;;;;;;6.79;5.51;;;;;;;18.89;33.37;100554.08;;;;-56
2020/03/28 03:44:10;;;;;;;6.91;5.25;;;;;;;18.88;33.40;100555.77;;;;-56
2020/03/28 03:47:14;;;;;;;6.49;5.49;;;;;;;18.88;33.40;100557.67;;;;-56
2020/03/28 03:51:10;;;;;;;6.23;5.37;;;;;;;18.87;33.37;100561.13;;;;-55
2020/03/28 03:54:10;;;;;;;6.06;5.45;;;;;;;18.86;33.37;100554.83;;;;-56
2020/03/28 03:57:10;;;;;;;5.51;4.89;;;;;;;18.86;33.41;100559.08;;;;-55
2020/03/28 04:00:14;;;;;;;7.55;5.49;;;;;;;18.85;33.39;100560.81;;;;-56
2020/03/28 04:04:10;;;;;;;5.89;5.25;;;;;;;18.84;33.42;100558.98;;;;-55
2020/03/28 04:07:10;;;;;;;6.57;5.25;;;;;;;18.83;33.40;100556.70;;;;-55
2020/03/28 04:10:10;;;;;;;6.98;5.41;;;;;;;18.82;33.42;100562.71;;;;-56
2020/03/28 04:13:10;;;;;;;5.78;5.14;;;;;;;18.81;33.40;100560.28;;;;-55
2020/03/28 04:16:10;;;;;;;6.19;5.31;;;;;;;18.81;33.40;100564.30;;;;-56
2020/03/28 04:19:10;;;;;;;5.87;5.23;;;;;;;18.80;33.40;100560.61;;;;-55
2020/03/28 04:22:10;;;;;;;5.95;5.13;;;;;;;18.79;33.42;100562.86;;;;-55
2020/03/28 04:25:10;;;;;;;6.51;5.48;;;;;;;18.79;33.43;100564.12;;;;-56
2020/03/28 04:28:10;;;;;;;6.30;5.43;;;;;;;18.77;33.43;100561.19;;;;-56
2020/03/28 04:31:10;;;;;;;6.65;5.47;;;;;;;18.77;33.44;100564.14;;;;-55
2020/03/28 04:34:10;;;;;;;6.07;5.17;;;;;;;18.77;33.42;100569.13;;;;-56
2020/03/28 04:37:10;;;;;;;6.41;5.37;;;;;;;18.75;33.43;100573.81;;;;-56
2020/03/28 04:40:10;;;;;;;7.00;5.59;;;;;;;18.75;33.42;100582.34;;;;-56
2020/03/28 04:43:10;;;;;;;6.16;5.51;;;;;;;18.75;33.43;100582.95;;;;-55
2020/03/28 04:46:10;;;;;;;5.91;5.11;;;;;;;18.76;33.46;100584.05;;;;-55
2020/03/28 04:49:10;;;;;;;6.27;5.27;;;;;;;18.76;33.46;100587.91;;;;-56
2020/03/28 04:52:10;;;;;;;6.89;5.17;;;;;;;18.77;33.47;100588.19;;;;-57
2020/03/28 04:55:10;;;;;;;6.62;5.53;;;;;;;18.79;33.45;100590.39;;;;-56
2020/03/28 04:58:10;;;;;;;6.65;5.27;;;;;;;18.81;33.49;100598.93;;;;-57
2020/03/28 05:01:10;;;;;;;7.47;5.62;;;;;;;18.84;33.54;100596.80;;;;-56
2020/03/28 05:04:10;;;;;;;6.65;5.42;;;;;;;18.86;33.46;100601.12;;;;-56
2020/03/28 05:07:10;;;;;;;5.94;4.96;;;;;;;18.90;33.45;100603.05;;;;-56
2020/03/28 05:10:10;;;;;;;6.52;4.87;;;;;;;18.92;33.36;100602.99;;;;-56
2020/03/28 05:13:10;;;;;;;6.05;4.82;;;;;;;19.00;33.46;100610.64;;;;-56
2020/03/28 05:16:10;;;;;;;6.73;5.35;;;;;;;19.03;33.41;100611.56;;;;-57
2020/03/28 05:19:10;;;;;;;6.03;5.23;;;;;;;19.07;33.44;100613.32;;;;-56
2020/03/28 05:22:10;;;;;;;6.29;5.24;;;;;;;19.10;33.41;100613.97;;;;-55
2020/03/28 05:25:10;;;;;;;6.23;4.98;;;;;;;19.15;33.49;100617.03;;;;-56
2020/03/28 05:28:10;;;;;;;6.26;5.37;;;;;;;19.18;33.48;100618.41;;;;-57
2020/03/28 05:31:10;;;;;;;6.28;5.27;;;;;;;19.22;33.51;100619.27;;;;-55
2020/03/28 05:34:10;;;;;;;5.44;4.88;;;;;;;19.23;33.50;100618.33;;;;-56
2020/03/28 05:37:10;;;;;;;6.76;5.28;;;;;;;19.28;33.51;100618.46;;;;-56
2020/03/28 05:40:10;;;;;;;5.43;4.93;;;;;;;19.30;33.46;100621.63;;;;-56
2020/03/28 05:43:10;;;;;;;6.52;5.26;;;;;;;19.32;33.47;100619.59;;;;-55
2020/03/28 05:46:10;;;;;;;5.57;4.99;;;;;;;19.37;33.49;100623.24;;;;-57
2020/03/28 05:49:10;;;;;;;6.20;5.01;;;;;;;19.41;33.48;100627.34;;;;-57
2020/03/28 05:52:10;;;;;;;6.13;4.97;;;;;;;19.44;33.45;100629.84;;;;-56
2020/03/28 05:55:10;;;;;;;6.74;5.15;;;;;;;19.48;33.54;100634.15;;;;-55
2020/03/28 05:58:10;;;;;;;6.28;5.13;;;;;;;19.50;33.44;100634.70;;;;-57
2020/03/28 06:01:10;;;;;;;6.83;5.23;;;;;;;19.52;33.45;100639.16;;;;-57
2020/03/28 06:04:10;;;;;;;6.07;5.15;;;;;;;19.52;33.50;100644.13;;;;-57
2020/03/28 06:07:10;;;;;;;6.42;5.25;;;;;;;19.57;33.50;100648.38;;;;-55
2020/03/28 06:10:10;;;;;;;6.99;4.98;;;;;;;19.60;33.46;100647.41;;;;-56
2020/03/28 06:13:10;;;;;;;6.50;5.11;;;;;;;19.63;33.69;100655.08;;;;-58
2020/03/28 06:16:10;;;;;;;6.78;5.32;;;;;;;19.67;33.69;100656.95;;;;-56
2020/03/28 06:19:10;;;;;;;6.73;5.31;;;;;;;19.71;33.91;100656.94;;;;-55
2020/03/28 06:22:10;;;;;;;8.83;5.91;;;;;;;19.73;33.78;100664.28;;;;-58
2020/03/28 06:25:10;;;;;;;7.74;5.79;;;;;;;19.78;33.72;100663.50;;;;-59
2020/03/28 06:28:10;;;;;;;9.55;5.63;;;;;;;19.79;33.41;100662.44;;;;-53
2020/03/28 06:31:10;;;;;;;8.29;6.03;;;;;;;19.78;32.96;100660.89;;;;-53
2020/03/28 06:34:10;;;;;;;8.91;5.65;;;;;;;19.82;33.50;100664.92;;;;-59
2020/03/28 06:37:10;;;;;;;7.65;5.77;;;;;;;19.85;33.57;100664.90;;;;-54
2020/03/28 06:40:10;;;;;;;7.89;5.65;;;;;;;19.88;33.38;100668.72;;;;-58
2020/03/28 06:43:10;;;;;;;8.03;6.01;;;;;;;19.91;33.42;100669.53;;;;-59
2020/03/28 06:46:10;;;;;;;7.23;5.53;;;;;;;19.95;33.46;100670.12;;;;-55
2020/03/28 06:49:10;;;;;;;8.13;5.97;;;;;;;19.98;33.46;100673.02;;;;-55
2020/03/28 06:52:11;;;;;;;6.75;5.71;;;;;;;19.99;33.47;100670.00;;;;-58
2020/03/28 06:56:10;;;;;;;8.42;6.13;;;;;;;20.01;33.13;100671.09;;;;-59
2020/03/28 06:59:10;;;;;;;7.70;5.73;;;;;;;20.03;33.42;100673.80;;;;-58
2020/03/28 07:02:10;;;;;;;7.67;5.73;;;;;;;20.05;33.19;100673.02;;;;-59
2020/03/28 07:05:10;;;;;;;7.84;5.74;;;;;;;20.07;33.29;100673.98;;;;-55
2020/03/28 07:08:10;;;;;;;7.57;5.79;;;;;;;20.10;33.34;100671.67;;;;-57
2020/03/28 07:11:10;;;;;;;8.11;5.66;;;;;;;20.12;33.46;100673.44;;;;-57
2020/03/28 07:14:10;;;;;;;7.11;5.94;;;;;;;20.15;33.37;100679.34;;;;-55
2020/03/28 07:17:10;;;;;;;6.93;5.66;;;;;;;20.15;33.38;100675.93;;;;-54
2020/03/28 07:20:10;;;;;;;8.74;6.21;;;;;;;20.18;33.44;100679.98;;;;-55
2020/03/28 07:23:10;;;;;;;8.42;5.67;;;;;;;20.17;33.16;100682.39;;;;-55
2020/03/28 07:26:10;;;;;;;8.05;5.41;;;;;;;20.17;33.34;100680.50;;;;-56
2020/03/28 07:29:10;;;;;;;8.43;5.45;;;;;;;20.18;33.33;100685.86;;;;-56
2020/03/28 07:32:10;;;;;;;7.02;5.43;;;;;;;20.17;33.10;100688.72;;;;-57
2020/03/28 07:35:10;;;;;;;8.17;5.68;;;;;;;20.18;33.19;100690.66;;;;-56
2020/03/28 07:38:10;;;;;;;6.97;5.14;;;;;;;20.19;33.12;100690.25;;;;-55
2020/03/28 07:41:10;;;;;;;8.26;5.34;;;;;;;20.19;33.06;100693.61;;;;-56
2020/03/28 07:44:10;;;;;;;6.67;5.36;;;;;;;20.21;33.18;100695.21;;;;-56
2020/03/28 07:47:10;;;;;;;6.83;5.22;;;;;;;20.20;33.02;100697.91;;;;-56
2020/03/28 07:50:10;;;;;;;7.33;5.81;;;;;;;20.21;33.02;100696.22;;;;-56
2020/03/28 07:53:10;;;;;;;7.19;5.31;;;;;;;20.23;33.01;100697.72;;;;-56
2020/03/28 07:56:10;;;;;;;8.12;5.29;;;;;;;20.24;32.90;100699.84;;;;-55
2020/03/28 07:59:10;;;;;;;6.27;5.13;;;;;;;20.26;33.07;100704.95;;;;-56
2020/03/28 08:02:10;;;;;;;6.23;4.94;;;;;;;20.26;32.94;100707.58;;;;-56
2020/03/28 08:05:10;;;;;;;7.34;5.22;;;;;;;20.29;33.11;100711.13;;;;-57
2020/03/28 08:08:10;;;;;;;6.79;5.21;;;;;;;20.28;32.95;100709.62;;;;-56
2020/03/28 08:11:10;;;;;;;6.94;5.53;;;;;;;20.31;32.87;100710.98;;;;-56
2020/03/28 08:14:10;;;;;;;6.63;5.56;;;;;;;20.33;32.97;100715.50;;;;-56
2020/03/28 08:17:10;;;;;;;6.99;5.39;;;;;;;20.32;32.93;100711.54;;;;-56
2020/03/28 08:20:10;;;;;;;8.86;5.58;;;;;;;20.30;32.69;100705.28;;;;-56
2020/03/28 08:23:10;;;;;;;6.93;5.36;;;;;;;20.31;32.75;100707.80;;;;-56
2020/03/28 08:26:10;;;;;;;6.29;4.98;;;;;;;20.32;32.67;100709.19;;;;-56
2020/03/28 08:29:10;;;;;;;6.11;4.97;;;;;;;20.32;32.67;100708.86;;;;-56
2020/03/28 08:32:10;;;;;;;7.65;5.13;;;;;;;20.34;32.69;100705.09;;;;-56
2020/03/28 08:35:10;;;;;;;6.19;4.98;;;;;;;20.34;32.58;100706.27;;;;-57
2020/03/28 08:38:10;;;;;;;6.62;5.37;;;;;;;20.37;33.31;100702.88;;;;-57
2020/03/28 08:41:10;;;;;;;7.13;5.19;;;;;;;20.41;33.67;100709.20;;;;-57
2020/03/28 08:44:10;;;;;;;8.29;5.51;;;;;;;20.44;33.91;100707.78;;;;-60
2020/03/28 08:47:10;;;;;;;6.80;5.19;;;;;;;20.46;34.01;100707.64;;;;-56
2020/03/28 08:50:10;;;;;;;6.15;4.85;;;;;;;20.48;34.39;100707.29;;;;-58
2020/03/28 08:53:10;;;;;;;6.25;5.16;;;;;;;20.48;33.74;100705.88;;;;-52
2020/03/28 08:56:10;;;;;;;7.77;5.21;;;;;;;20.49;33.83;100703.64;;;;-55
2020/03/28 08:59:10;;;;;;;9.42;5.51;;;;;;;20.48;33.79;100705.45;;;;-60
2020/03/28 09:08:08;;;;;;;14.24;5.10;;;;;;;20.51;33.93;100704.47;;;;-49
2020/03/28 09:11:08;;;;;;;7.96;5.66;;;;;;;20.52;33.92;100701.16;;;;-47
2020/03/28 09:14:08;;;;;;;9.19;5.60;;;;;;;20.53;33.71;100696.84;;;;-47
2020/03/28 09:17:08;;;;;;;11.05;5.28;;;;;;;20.52;33.35;100700.19;;;;-48
2020/03/28 09:20:08;;;;;;;8.69;4.95;;;;;;;20.51;33.22;100701.32;;;;-49
2020/03/28 09:23:08;;;;;;;16.29;5.57;;;;;;;20.55;33.49;100700.45;;;;-47
2020/03/28 09:26:08;;;;;;;8.04;4.94;;;;;;;20.55;33.36;100702.47;;;;-48
2020/03/28 09:29:08;;;;;;;9.96;5.17;;;;;;;20.56;33.32;100706.20;;;;-48
2020/03/28 09:32:08;;;;;;;6.88;4.77;;;;;;;20.55;33.17;100702.34;;;;-48
2020/03/28 09:35:08;;;;;;;8.92;5.09;;;;;;;20.55;33.19;100703.41;;;;-47
2020/03/28 09:38:08;;;;;;;7.67;5.02;;;;;;;20.55;33.18;100700.05;;;;-48
2020/03/28 09:41:08;;;;;;;7.79;4.88;;;;;;;20.56;32.95;100698.69;;;;-48
2020/03/28 09:44:08;;;;;;;7.15;4.73;;;;;;;20.57;33.03;100699.91;;;;-48
2020/03/28 09:47:08;;;;;;;7.32;4.65;;;;;;;20.58;32.88;100695.21;;;;-48
2020/03/28 09:50:08;;;;;;;8.99;4.55;;;;;;;20.57;32.93;100694.27;;;;-48
2020/03/28 09:53:08;;;;;;;8.41;4.57;;;;;;;20.58;32.82;100696.33;;;;-48
2020/03/28 09:56:08;;;;;;;6.46;4.70;;;;;;;20.60;32.94;100696.98;;;;-48
2020/03/28 09:59:08;;;;;;;6.86;4.74;;;;;;;20.60;33.08;100696.01;;;;-48
2020/03/28 10:02:08;;;;;;;6.24;4.71;;;;;;;20.60;33.02;100687.52;;;;-48
2020/03/28 10:05:08;;;;;;;8.64;4.71;;;;;;;20.60;32.78;100688.92;;;;-48
2020/03/28 10:08:07;;;;;;;6.17;4.55;;;;;;;20.60;32.85;100683.38;;;;-48
2020/03/28 10:11:08;;;;;;;6.02;4.61;;;;;;;20.59;32.80;100681.77;;;;-48
2020/03/28 10:14:08;;;;;;;7.90;4.61;;;;;;;20.59;32.75;100675.89;;;;-54
2020/03/28 10:17:08;;;;;;;7.75;4.53;;;;;;;20.58;33.09;100674.84;;;;-59
2020/03/28 10:20:08;;;;;;;7.33;4.85;;;;;;;20.54;32.64;100671.86;;;;-57
2020/03/28 10:23:08;;;;;;;7.55;4.75;;;;;;;20.52;32.74;100673.11;;;;-57
2020/03/28 10:26:08;;;;;;;10.53;5.05;;;;;;;20.51;32.82;100671.92;;;;-56
2020/03/28 10:29:08;;;;;;;11.95;5.13;;;;;;;20.50;33.00;100669.30;;;;-57
2020/03/28 10:32:08;;;;;;;7.34;4.97;;;;;;;20.49;33.17;100665.29;;;;-57
2020/03/28 10:35:08;;;;;;;7.73;5.00;;;;;;;20.47;33.18;100659.87;;;;-56
2020/03/28 10:38:08;;;;;;;7.20;4.73;;;;;;;20.46;33.28;100658.09;;;;-56
2020/03/28 10:41:08;;;;;;;6.45;4.54;;;;;;;20.46;33.21;100660.33;;;;-56
2020/03/28 10:44:08;;;;;;;9.15;4.80;;;;;;;20.45;33.33;100655.98;;;;-57
2020/03/28 10:47:08;;;;;;;6.48;4.81;;;;;;;20.44;33.34;100656.11;;;;-57
2020/03/28 10:50:08;;;;;;;7.36;4.58;;;;;;;20.43;33.39;100646.38;;;;-57
2020/03/28 10:53:08;;;;;;;11.09;4.67;;;;;;;20.44;33.95;100648.16;;;;-56
2020/03/28 10:56:08;;;;;;;10.11;4.59;;;;;;;20.51;34.03;100646.19;;;;-60
2020/03/28 10:59:08;;;;;;;10.81;4.82;;;;;;;20.51;33.52;100643.90;;;;-60
2020/03/28 11:02:08;;;;;;;7.60;4.53;;;;;;;20.53;33.54;100646.67;;;;-60
2020/03/28 11:05:08;;;;;;;6.52;4.61;;;;;;;20.53;33.36;100645.03;;;;-62
2020/03/28 11:08:08;;;;;;;5.78;4.42;;;;;;;20.54;33.29;100639.94;;;;-60
2020/03/28 11:11:08;;;;;;;6.82;4.74;;;;;;;20.54;33.21;100636.75;;;;-61
2020/03/28 11:14:08;;;;;;;7.46;4.34;;;;;;;20.56;33.12;100636.50;;;;-60
2020/03/28 11:17:09;;;;;;;6.68;4.17;;;;;;;20.58;33.22;100632.56;;;;-61
2020/03/28 11:21:08;;;;;;;7.15;4.19;;;;;;;20.58;33.10;100631.22;;;;-61
2020/03/28 11:24:08;;;;;;;7.45;4.43;;;;;;;20.59;33.13;100631.03;;;;-61
2020/03/28 11:27:08;;;;;;;6.57;4.25;;;;;;;20.61;33.29;100625.41;;;;-59
2020/03/28 11:30:08;;;;;;;6.79;4.14;;;;;;;20.60;33.20;100624.42;;;;-62
2020/03/28 11:33:08;;;;;;;7.55;4.49;;;;;;;20.61;33.16;100622.95;;;;-61
2020/03/28 11:36:08;;;;;;;5.60;4.29;;;;;;;20.63;33.11;100620.25;;;;-62
2020/03/28 11:39:08;;;;;;;5.09;4.05;;;;;;;20.63;33.02;100611.02;;;;-61
2020/03/28 11:42:08;;;;;;;6.01;4.17;;;;;;;20.63;33.06;100613.54;;;;-60
2020/03/28 11:45:08;;;;;;;4.94;3.99;;;;;;;20.63;33.08;100609.62;;;;-60
2020/03/28 11:48:08;;;;;;;5.77;4.23;;;;;;;20.64;33.01;100607.98;;;;-52
2020/03/28 11:51:08;;;;;;;6.29;4.55;;;;;;;20.64;33.04;100603.45;;;;-51
2020/03/28 11:54:08;;;;;;;6.39;4.24;;;;;;;20.63;33.04;100600.12;;;;-52
2020/03/28 11:57:08;;;;;;;5.87;4.07;;;;;;;20.63;33.03;100599.22;;;;-51
2020/03/28 12:00:08;;;;;;;6.40;4.19;;;;;;;20.64;33.01;100593.61;;;;-50
2020/03/28 12:03:08;;;;;;;6.71;4.11;;;;;;;20.63;32.99;100590.55;;;;-52
2020/03/28 12:06:08;;;;;;;6.61;4.15;;;;;;;20.64;33.00;100588.17;;;;-51
2020/03/28 12:09:08;;;;;;;6.29;4.05;;;;;;;20.64;33.03;100586.73;;;;-51
2020/03/28 12:12:08;;;;;;;5.87;4.01;;;;;;;20.63;33.03;100584.52;;;;-52
2020/03/28 12:15:08;;;;;;;6.67;4.00;;;;;;;20.63;33.04;100586.52;;;;-50
2020/03/28 12:18:08;;;;;;;5.60;4.25;;;;;;;20.63;33.02;100580.08;;;;-52
2020/03/28 12:21:08;;;;;;;6.13;4.28;;;;;;;20.62;33.01;100567.05;;;;-51
2020/03/28 12:24:08;;;;;;;5.11;3.97;;;;;;;20.62;33.01;100566.95;;;;-52
2020/03/28 12:27:08;;;;;;;6.11;4.18;;;;;;;20.63;33.00;100564.38;;;;-50
2020/03/28 12:30:08;;;;;;;6.57;4.33;;;;;;;20.62;32.98;100560.47;;;;-52
2020/03/28 12:33:08;;;;;;;6.05;4.29;;;;;;;20.62;33.02;100564.60;;;;-51
2020/03/28 12:36:08;;;;;;;6.15;4.21;;;;;;;20.61;33.02;100553.15;;;;-52
2020/03/28 12:39:07;;;;;;;5.33;3.95;;;;;;;20.60;32.96;100553.45;;;;-51
2020/03/28 12:42:07;;;;;;;4.67;4.03;;;;;;;20.60;32.98;100550.59;;;;-51
2020/03/28 12:45:07;;;;;;;4.73;3.85;;;;;;;20.61;33.01;100552.58;;;;-51
2020/03/28 12:48:07;;;;;;;6.53;3.86;;;;;;;20.61;33.02;100552.48;;;;-50
2020/03/28 12:51:08;;;;;;;5.41;3.90;;;;;;;20.61;33.00;100553.15;;;;-51
2020/03/28 12:54:08;;;;;;;5.20;3.88;;;;;;;20.61;33.00;100547.44;;;;-51
2020/03/28 12:57:07;;;;;;;4.63;3.92;;;;;;;20.61;32.99;100541.80;;;;-51
2020/03/28 13:00:10;;;;;;;6.69;4.33;;;;;;;20.61;32.95;100535.97;;;;-51
2020/03/28 13:04:08;;;;;;;5.19;3.75;;;;;;;20.61;32.97;100530.56;;;;-50
2020/03/28 13:07:08;;;;;;;5.35;3.65;;;;;;;20.61;32.98;100525.63;;;;-52
2020/03/28 13:10:07;;;;;;;4.53;3.91;;;;;;;20.61;32.98;100522.27;;;;-51
2020/03/28 13:13:08;;;;;;;5.01;3.87;;;;;;;20.61;32.97;100516.00;;;;-51
2020/03/28 13:16:07;;;;;;;5.09;3.82;;;;;;;20.62;32.97;100516.61;;;;-52
2020/03/28 13:19:07;;;;;;;5.03;3.90;;;;;;;20.61;32.96;100512.47;;;;-50
2020/03/28 13:22:07;;;;;;;5.43;3.66;;;;;;;20.60;32.95;100508.48;;;;-51
2020/03/28 13:25:08;;;;;;;5.53;4.03;;;;;;;20.61;32.98;100504.83;;;;-52
2020/03/28 13:28:08;;;;;;;4.52;3.93;;;;;;;20.61;32.99;100501.23;;;;-51
2020/03/28 13:31:07;;;;;;;5.01;3.90;;;;;;;20.62;33.00;100499.56;;;;-51
2020/03/28 13:34:07;;;;;;;5.06;3.71;;;;;;;20.61;33.04;100497.95;;;;-51
2020/03/28 13:37:08;;;;;;;5.22;3.91;;;;;;;20.61;33.02;100493.75;;;;-51
2020/03/28 13:40:08;;;;;;;5.31;3.56;;;;;;;20.62;33.04;100494.63;;;;-52
2020/03/28 13:43:08;;;;;;;5.63;3.87;;;;;;;20.61;33.08;100489.16;;;;-51
2020/03/28 13:46:07;;;;;;;6.28;3.89;;;;;;;20.60;33.09;100479.72;;;;-50
2020/03/28 13:49:07;;;;;;;4.62;3.73;;;;;;;20.59;33.07;100479.00;;;;-52
2020/03/28 13:52:07;;;;;;;4.89;3.71;;;;;;;20.60;33.11;100476.32;;;;-51
2020/03/28 13:55:08;;;;;;;4.80;3.73;;;;;;;20.59;33.10;100473.37;;;;-51
2020/03/28 13:58:08;;;;;;;6.48;4.03;;;;;;;20.58;33.10;100470.48;;;;-51
2020/03/28 14:01:07;;;;;;;4.96;3.88;;;;;;;20.58;33.11;100468.63;;;;-51
2020/03/28 14:04:07;;;;;;;5.41;3.94;;;;;;;20.57;33.13;100461.88;;;;-51
2020/03/28 14:07:07;;;;;;;5.35;3.85;;;;;;;20.57;33.16;100462.21;;;;-51
2020/03/28 14:10:07;;;;;;;5.39;3.89;;;;;;;20.57;33.14;100459.09;;;;-51
2020/03/28 14:13:07;;;;;;;4.58;3.80;;;;;;;20.57;33.17;100459.02;;;;-50
2020/03/28 14:16:14;;;;;;;5.21;3.67;;;;;;;20.57;33.15;100456.94;;;;-50
2020/03/28 14:19:11;;;;;;;6.13;3.72;;;;;;;20.57;33.15;100451.70;;;;-52
2020/03/28 14:22:08;;;;;;;4.87;3.95;;;;;;;20.57;33.16;100450.91;;;;-50
2020/03/28 14:25:08;;;;;;;4.57;3.64;;;;;;;20.56;33.20;100447.08;;;;-51
2020/03/28 14:28:07;;;;;;;5.09;3.72;;;;;;;20.56;33.17;100450.19;;;;-51
2020/03/28 14:31:07;;;;;;;5.55;3.46;;;;;;;20.56;33.18;100450.59;;;;-50
2020/03/28 14:34:08;;;;;;;5.14;3.47;;;;;;;20.56;33.17;100448.75;;;;-51
2020/03/28 14:37:07;;;;;;;4.70;3.80;;;;;;;20.56;33.20;100447.67;;;;-50
2020/03/28 14:40:08;;;;;;;4.83;3.44;;;;;;;20.56;33.21;100445.28;;;;-51
2020/03/28 14:43:07;;;;;;;5.05;3.85;;;;;;;20.55;33.21;100442.67;;;;-50
2020/03/28 14:46:07;;;;;;;4.74;3.48;;;;;;;20.55;33.21;100438.41;;;;-51
2020/03/28 14:49:07;;;;;;;6.38;3.88;;;;;;;20.54;33.25;100433.94;;;;-51
2020/03/28 14:52:07;;;;;;;3.85;3.36;;;;;;;20.53;33.40;100432.89;;;;-52
2020/03/28 14:55:07;;;;;;;6.85;4.52;;;;;;;20.52;33.87;100429.97;;;;-52
2020/03/28 14:58:08;;;;;;;8.51;4.53;;;;;;;20.50;33.96;100425.62;;;;-51
2020/03/28 15:01:08;;;;;;;7.47;4.40;;;;;;;20.50;33.96;100429.95;;;;-55
2020/03/28 15:04:08;;;;;;;10.85;4.71;;;;;;;20.50;34.01;100430.16;;;;-53
2020/03/28 15:07:08;;;;;;;7.79;4.45;;;;;;;20.52;34.15;100427.45;;;;-50
2020/03/28 15:10:07;;;;;;;7.18;4.35;;;;;;;20.52;33.79;100429.56;;;;-50
2020/03/28 15:13:07;;;;;;;7.79;4.31;;;;;;;20.54;33.66;100425.08;;;;-50
2020/03/28 15:16:07;;;;;;;8.24;4.03;;;;;;;20.54;33.60;100424.88;;;;-50
2020/03/28 15:19:07;;;;;;;6.75;4.12;;;;;;;20.54;33.54;100425.84;;;;-51
2020/03/28 15:22:08;;;;;;;5.54;4.19;;;;;;;20.53;33.53;100422.33;;;;-50
2020/03/28 15:25:07;;;;;;;6.92;4.19;;;;;;;20.53;33.47;100415.78;;;;-50
2020/03/28 15:28:08;;;;;;;6.14;4.14;;;;;;;20.54;33.44;100418.36;;;;-50
2020/03/28 15:31:08;;;;;;;7.50;4.15;;;;;;;20.52;33.42;100419.43;;;;-50
2020/03/28 15:34:07;;;;;;;6.59;4.13;;;;;;;20.53;33.37;100416.08;;;;-51
2020/03/28 15:37:08;;;;;;;6.75;4.15;;;;;;;20.53;33.34;100420.04;;;;-50
2020/03/28 15:40:07;;;;;;;5.87;4.13;;;;;;;20.53;33.33;100423.29;;;;-50
2020/03/28 15:43:08;;;;;;;6.59;4.35;;;;;;;20.53;33.37;100419.00;;;;-50
2020/03/28 15:46:08;;;;;;;5.51;3.79;;;;;;;20.52;33.38;100417.15;;;;-50
2020/03/28 15:49:07;;;;;;;5.93;3.78;;;;;;;20.53;33.35;100423.36;;;;-50
2020/03/28 15:52:09;;;;;;;4.65;3.87;;;;;;;20.53;33.36;100426.98;;;;-50
2020/03/28 15:58:07;;;;;;;6.03;4.07;;;;;;;20.52;33.35;100425.16;;;;-50
2020/03/28 16:01:07;;;;;;;5.69;3.87;;;;;;;20.53;33.37;100423.70;;;;-50
2020/03/28 16:04:08;;;;;;;6.37;4.13;;;;;;;20.54;33.57;100429.94;;;;-51
2020/03/28 16:07:08;;;;;;;4.93;3.97;;;;;;;20.55;33.93;100428.91;;;;-51
2020/03/28 16:11:07;;;;;;;5.78;4.23;;;;;;;20.56;33.94;100427.94;;;;-50
2020/03/28 16:14:08;;;;;;;7.24;4.27;;;;;;;20.57;34.12;100429.66;;;;-52
2020/03/28 16:17:08;;;;;;;6.11;4.19;;;;;;;20.59;34.18;100430.34;;;;-50
2020/03/28 16:20:08;;;;;;;6.79;4.28;;;;;;;20.61;34.55;100427.06;;;;-49
2020/03/28 16:23:07;;;;;;;4.41;3.99;;;;;;;20.62;34.48;100429.69;;;;-47
2020/03/28 16:26:08;;;;;;;5.12;4.13;;;;;;;20.64;34.47;100428.42;;;;-47
2020/03/28 16:29:08;;;;;;;5.57;4.23;;;;;;;20.66;34.59;100427.39;;;;-48
2020/03/28 16:32:07;;;;;;;5.16;4.10;;;;;;;20.68;34.36;100432.61;;;;-52
2020/03/28 16:35:08;;;;;;;5.92;4.19;;;;;;;20.68;34.00;100428.31;;;;-50
2020/03/28 16:38:08;;;;;;;6.06;4.08;;;;;;;20.68;33.88;100432.84;;;;-50
2020/03/28 16:41:08;;;;;;;6.05;4.07;;;;;;;20.67;33.81;100426.59;;;;-51
2020/03/28 16:44:08;;;;;;;6.66;4.39;;;;;;;20.67;33.76;100436.16;;;;-51
2020/03/28 16:47:08;;;;;;;5.58;4.47;;;;;;;20.68;33.67;100436.53;;;;-52
2020/03/28 16:50:07;;;;;;;6.37;4.37;;;;;;;20.67;33.59;100436.43;;;;-51
2020/03/28 16:53:07;;;;;;;5.25;4.21;;;;;;;20.68;33.54;100439.05;;;;-51
2020/03/28 16:56:07;;;;;;;5.32;4.19;;;;;;;20.67;33.52;100440.19;;;;-51
2020/03/28 16:59:07;;;;;;;4.79;4.08;;;;;;;20.67;33.50;100440.45;;;;-51